sensor_id;sensor_type;location;lat;lon;timestamp;P1;durP1;ratioP1;P2;durP2;ratioP2
45893;SDS011;31603;51.148;16.932;2023-04-08T00:04:58;26.10;;;14.55;;
45893;SDS011;31603;51.148;16.932;2023-04-08T00:07:39;30.17;;;15.07;;
45893;SDS011;31603;51.148;16.932;2023-04-08T00:10:44;34.83;;;17.10;;
45893;SDS011;31603;51.148;16.932;2023-04-08T00:12:54;27.48;;;15.32;;
45893;SDS011;31603;51.148;16.932;2023-04-08T00:15:22;39.50;;;19.98;;
45893;SDS011;31603;51.148;16.932;2023-04-08T00:25:44;31.88;;;16.40;;
45893;SDS011;31603;51.148;16.932;2023-04-08T00:28:25;36.80;;;17.60;;
45893;SDS011;31603;51.148;16.932;2023-04-08T00:30:56;33.10;;;18.15;;
45893;SDS011;31603;51.148;16.932;2023-04-08T00:33:36;42.47;;;18.65;;
45893;SDS011;31603;51.148;16.932;2023-04-08T00:36:03;41.65;;;19.98;;
45893;SDS011;31603;51.148;16.932;2023-04-08T00:38:43;38.28;;;18.27;;
45893;SDS011;31603;51.148;16.932;2023-04-08T00:46:38;41.08;;;18.23;;
45893;SDS011;31603;51.148;16.932;2023-04-08T00:49:05;40.60;;;17.73;;
45893;SDS011;31603;51.148;16.932;2023-04-08T00:51:47;44.53;;;18.73;;
45893;SDS011;31603;51.148;16.932;2023-04-08T00:54:26;37.08;;;19.67;;
45893;SDS011;31603;51.148;16.932;2023-04-08T00:56:57;39.58;;;18.88;;
45893;SDS011;31603;51.148;16.932;2023-04-08T00:59:38;48.70;;;20.88;;
45893;SDS011;31603;51.148;16.932;2023-04-08T01:31:05;49.63;;;23.45;;
45893;SDS011;31603;51.148;16.932;2023-04-08T01:33:34;51.88;;;21.85;;
45893;SDS011;31603;51.148;16.932;2023-04-08T01:36:03;43.95;;;20.73;;
45893;SDS011;31603;51.148;16.932;2023-04-08T01:38:31;47.10;;;22.48;;
45893;SDS011;31603;51.148;16.932;2023-04-08T01:40:59;42.92;;;21.50;;
45893;SDS011;31603;51.148;16.932;2023-04-08T01:43:39;48.38;;;22.27;;
45893;SDS011;31603;51.148;16.932;2023-04-08T01:46:10;49.40;;;22.95;;
45893;SDS011;31603;51.148;16.932;2023-04-08T01:48:56;55.28;;;23.77;;
45893;SDS011;31603;51.148;16.932;2023-04-08T01:51:24;47.80;;;22.60;;
45893;SDS011;31603;51.148;16.932;2023-04-08T01:54:07;45.22;;;21.90;;
45893;SDS011;31603;51.148;16.932;2023-04-08T01:56:47;54.42;;;24.63;;
45893;SDS011;31603;51.148;16.932;2023-04-08T01:59:34;46.67;;;21.85;;
45893;SDS011;31603;51.148;16.932;2023-04-08T02:02:04;44.28;;;21.25;;
45893;SDS011;31603;51.148;16.932;2023-04-08T02:04:45;46.42;;;21.33;;
45893;SDS011;31603;51.148;16.932;2023-04-08T02:07:12;44.40;;;21.13;;
45893;SDS011;31603;51.148;16.932;2023-04-08T02:09:54;46.08;;;22.67;;
45893;SDS011;31603;51.148;16.932;2023-04-08T02:12:30;50.55;;;22.15;;
45893;SDS011;31603;51.148;16.932;2023-04-08T02:14:58;45.00;;;22.65;;
45893;SDS011;31603;51.148;16.932;2023-04-08T02:17:36;45.03;;;22.55;;
45893;SDS011;31603;51.148;16.932;2023-04-08T02:20:05;43.53;;;21.80;;
45893;SDS011;31603;51.148;16.932;2023-04-08T02:22:43;42.45;;;20.45;;
45893;SDS011;31603;51.148;16.932;2023-04-08T02:25:19;39.35;;;19.52;;
45893;SDS011;31603;51.148;16.932;2023-04-08T02:28:01;37.90;;;19.95;;
45893;SDS011;31603;51.148;16.932;2023-04-08T02:30:31;46.47;;;22.42;;
45893;SDS011;31603;51.148;16.932;2023-04-08T02:33:01;39.65;;;20.70;;
45893;SDS011;31603;51.148;16.932;2023-04-08T02:35:43;41.85;;;20.88;;
45893;SDS011;31603;51.148;16.932;2023-04-08T02:38:40;38.92;;;20.27;;
45893;SDS011;31603;51.148;16.932;2023-04-08T02:40:57;37.40;;;20.42;;
45893;SDS011;31603;51.148;16.932;2023-04-08T02:43:32;36.33;;;19.67;;
45893;SDS011;31603;51.148;16.932;2023-04-08T02:46:01;40.22;;;20.33;;
45893;SDS011;31603;51.148;16.932;2023-04-08T02:48:30;41.58;;;20.55;;
45893;SDS011;31603;51.148;16.932;2023-04-08T02:50:57;35.40;;;18.42;;
45893;SDS011;31603;51.148;16.932;2023-04-08T02:53:37;33.05;;;17.30;;
45893;SDS011;31603;51.148;16.932;2023-04-08T02:56:05;35.35;;;18.13;;
45893;SDS011;31603;51.148;16.932;2023-04-08T02:58:56;35.63;;;18.23;;
45893;SDS011;31603;51.148;16.932;2023-04-08T03:01:37;34.50;;;18.55;;
45893;SDS011;31603;51.148;16.932;2023-04-08T03:04:05;33.83;;;18.60;;
45893;SDS011;31603;51.148;16.932;2023-04-08T03:06:45;33.40;;;18.60;;
45893;SDS011;31603;51.148;16.932;2023-04-08T03:09:12;33.13;;;18.27;;
45893;SDS011;31603;51.148;16.932;2023-04-08T03:11:39;32.03;;;17.35;;
45893;SDS011;31603;51.148;16.932;2023-04-08T03:14:06;34.20;;;19.25;;
45893;SDS011;31603;51.148;16.932;2023-04-08T03:16:44;32.45;;;18.77;;
45893;SDS011;31603;51.148;16.932;2023-04-08T03:27:46;39.15;;;19.27;;
45893;SDS011;31603;51.148;16.932;2023-04-08T03:30:12;36.65;;;18.48;;
45893;SDS011;31603;51.148;16.932;2023-04-08T03:32:40;32.88;;;18.55;;
45893;SDS011;31603;51.148;16.932;2023-04-08T03:35:08;30.67;;;16.95;;
45893;SDS011;31603;51.148;16.932;2023-04-08T03:37:39;36.80;;;19.33;;
45893;SDS011;31603;51.148;16.932;2023-04-08T03:40:06;34.90;;;18.52;;
45893;SDS011;31603;51.148;16.932;2023-04-08T03:42:33;30.40;;;16.15;;
45893;SDS011;31603;51.148;16.932;2023-04-08T03:45:01;35.45;;;17.67;;
45893;SDS011;31603;51.148;16.932;2023-04-08T03:47:37;31.30;;;17.48;;
45893;SDS011;31603;51.148;16.932;2023-04-08T03:50:03;32.03;;;16.98;;
45893;SDS011;31603;51.148;16.932;2023-04-08T03:52:30;33.97;;;18.20;;
45893;SDS011;31603;51.148;16.932;2023-04-08T03:54:58;30.63;;;16.75;;
45893;SDS011;31603;51.148;16.932;2023-04-08T03:57:32;30.23;;;16.75;;
45893;SDS011;31603;51.148;16.932;2023-04-08T03:59:59;26.20;;;14.80;;
45893;SDS011;31603;51.148;16.932;2023-04-08T04:02:29;22.52;;;13.18;;
45893;SDS011;31603;51.148;16.932;2023-04-08T04:04:55;22.75;;;12.75;;
45893;SDS011;31603;51.148;16.932;2023-04-08T04:07:22;19.63;;;11.27;;
45893;SDS011;31603;51.148;16.932;2023-04-08T04:09:49;23.15;;;13.32;;
45893;SDS011;31603;51.148;16.932;2023-04-08T04:14:54;24.92;;;15.18;;
45893;SDS011;31603;51.148;16.932;2023-04-08T04:17:21;26.20;;;14.73;;
45893;SDS011;31603;51.148;16.932;2023-04-08T04:19:49;28.75;;;15.55;;
45893;SDS011;31603;51.148;16.932;2023-04-08T04:22:27;30.08;;;16.98;;
45893;SDS011;31603;51.148;16.932;2023-04-08T04:24:57;29.15;;;17.00;;
45893;SDS011;31603;51.148;16.932;2023-04-08T04:27:24;32.00;;;17.42;;
45893;SDS011;31603;51.148;16.932;2023-04-08T04:29:50;30.98;;;17.73;;
45893;SDS011;31603;51.148;16.932;2023-04-08T04:32:17;30.98;;;17.40;;
45893;SDS011;31603;51.148;16.932;2023-04-08T04:34:45;33.58;;;17.50;;
45893;SDS011;31603;51.148;16.932;2023-04-08T04:37:20;31.08;;;17.40;;
45893;SDS011;31603;51.148;16.932;2023-04-08T04:39:57;31.13;;;17.13;;
45893;SDS011;31603;51.148;16.932;2023-04-08T04:42:30;31.17;;;16.60;;
45893;SDS011;31603;51.148;16.932;2023-04-08T04:44:57;33.42;;;17.20;;
45893;SDS011;31603;51.148;16.932;2023-04-08T04:47:37;29.30;;;17.27;;
45893;SDS011;31603;51.148;16.932;2023-04-08T04:50:12;30.40;;;17.52;;
45893;SDS011;31603;51.148;16.932;2023-04-08T04:52:44;31.92;;;17.77;;
45893;SDS011;31603;51.148;16.932;2023-04-08T04:55:24;31.35;;;17.92;;
45893;SDS011;31603;51.148;16.932;2023-04-08T04:58:04;31.90;;;18.10;;
45893;SDS011;31603;51.148;16.932;2023-04-08T05:00:34;29.20;;;16.55;;
45893;SDS011;31603;51.148;16.932;2023-04-08T05:03:00;35.55;;;17.95;;
45893;SDS011;31603;51.148;16.932;2023-04-08T05:05:28;33.40;;;17.75;;
45893;SDS011;31603;51.148;16.932;2023-04-08T05:08:05;32.72;;;17.92;;
45893;SDS011;31603;51.148;16.932;2023-04-08T05:10:32;31.23;;;17.50;;
45893;SDS011;31603;51.148;16.932;2023-04-08T05:12:58;33.97;;;18.92;;
45893;SDS011;31603;51.148;16.932;2023-04-08T05:15:33;32.60;;;17.77;;
45893;SDS011;31603;51.148;16.932;2023-04-08T05:18:00;33.50;;;18.65;;
45893;SDS011;31603;51.148;16.932;2023-04-08T05:20:27;34.58;;;19.73;;
45893;SDS011;31603;51.148;16.932;2023-04-08T05:23:03;33.83;;;20.10;;
45893;SDS011;31603;51.148;16.932;2023-04-08T05:25:34;30.83;;;16.55;;
45893;SDS011;31603;51.148;16.932;2023-04-08T05:28:00;36.33;;;19.17;;
45893;SDS011;31603;51.148;16.932;2023-04-08T05:30:28;37.47;;;20.50;;
45893;SDS011;31603;51.148;16.932;2023-04-08T05:32:54;27.98;;;16.42;;
45893;SDS011;31603;51.148;16.932;2023-04-08T05:35:36;29.80;;;18.02;;
45893;SDS011;31603;51.148;16.932;2023-04-08T05:48:46;28.88;;;16.85;;
45893;SDS011;31603;51.148;16.932;2023-04-08T05:51:17;27.27;;;15.85;;
45893;SDS011;31603;51.148;16.932;2023-04-08T05:59:58;23.60;;;13.05;;
45893;SDS011;31603;51.148;16.932;2023-04-08T06:02:39;23.80;;;14.13;;
45893;SDS011;31603;51.148;16.932;2023-04-08T06:22:51;24.45;;;13.38;;
45893;SDS011;31603;51.148;16.932;2023-04-08T06:25:18;19.63;;;12.13;;
45893;SDS011;31603;51.148;16.932;2023-04-08T06:28:12;20.33;;;13.10;;
45893;SDS011;31603;51.148;16.932;2023-04-08T06:30:54;23.98;;;15.52;;
45893;SDS011;31603;51.148;16.932;2023-04-08T06:33:23;24.48;;;14.55;;
45893;SDS011;31603;51.148;16.932;2023-04-08T06:36:02;28.27;;;17.33;;
45893;SDS011;31603;51.148;16.932;2023-04-08T06:38:42;27.17;;;16.67;;
45893;SDS011;31603;51.148;16.932;2023-04-08T06:41:08;33.55;;;19.25;;
45893;SDS011;31603;51.148;16.932;2023-04-08T06:43:44;32.72;;;19.45;;
45893;SDS011;31603;51.148;16.932;2023-04-08T06:46:14;31.27;;;17.60;;
45893;SDS011;31603;51.148;16.932;2023-04-08T06:48:41;31.15;;;18.60;;
45893;SDS011;31603;51.148;16.932;2023-04-08T06:51:07;34.15;;;19.60;;
45893;SDS011;31603;51.148;16.932;2023-04-08T06:53:49;28.00;;;16.23;;
45893;SDS011;31603;51.148;16.932;2023-04-08T06:56:20;29.60;;;17.30;;
45893;SDS011;31603;51.148;16.932;2023-04-08T06:58:47;31.23;;;17.75;;
45893;SDS011;31603;51.148;16.932;2023-04-08T07:01:31;24.70;;;14.38;;
45893;SDS011;31603;51.148;16.932;2023-04-08T07:04:05;29.52;;;17.23;;
45893;SDS011;31603;51.148;16.932;2023-04-08T07:06:39;27.77;;;16.10;;
45893;SDS011;31603;51.148;16.932;2023-04-08T07:23:42;24.95;;;14.45;;
45893;SDS011;31603;51.148;16.932;2023-04-08T07:26:15;25.90;;;15.25;;
45893;SDS011;31603;51.148;16.932;2023-04-08T07:28:41;27.60;;;15.32;;
45893;SDS011;31603;51.148;16.932;2023-04-08T07:31:12;25.63;;;14.07;;
45893;SDS011;31603;51.148;16.932;2023-04-08T07:33:53;22.95;;;13.82;;
45893;SDS011;31603;51.148;16.932;2023-04-08T07:36:20;25.92;;;15.27;;
45893;SDS011;31603;51.148;16.932;2023-04-08T07:38:48;22.65;;;13.23;;
45893;SDS011;31603;51.148;16.932;2023-04-08T07:41:14;20.05;;;12.65;;
45893;SDS011;31603;51.148;16.932;2023-04-08T07:43:40;18.75;;;11.70;;
45893;SDS011;31603;51.148;16.932;2023-04-08T07:46:07;22.42;;;12.40;;
45893;SDS011;31603;51.148;16.932;2023-04-08T07:48:34;18.83;;;10.90;;
45893;SDS011;31603;51.148;16.932;2023-04-08T07:51:04;18.02;;;10.90;;
45893;SDS011;31603;51.148;16.932;2023-04-08T07:53:32;19.92;;;11.25;;
45893;SDS011;31603;51.148;16.932;2023-04-08T07:56:00;17.73;;;10.65;;
45893;SDS011;31603;51.148;16.932;2023-04-08T07:58:28;19.25;;;11.90;;
45893;SDS011;31603;51.148;16.932;2023-04-08T08:00:56;18.35;;;11.32;;
45893;SDS011;31603;51.148;16.932;2023-04-08T08:03:22;20.45;;;11.23;;
45893;SDS011;31603;51.148;16.932;2023-04-08T08:05:49;19.27;;;11.30;;
45893;SDS011;31603;51.148;16.932;2023-04-08T08:08:16;18.40;;;10.98;;
45893;SDS011;31603;51.148;16.932;2023-04-08T08:10:42;20.02;;;12.48;;
45893;SDS011;31603;51.148;16.932;2023-04-08T08:13:11;21.55;;;13.00;;
45893;SDS011;31603;51.148;16.932;2023-04-08T08:15:41;24.35;;;13.70;;
45893;SDS011;31603;51.148;16.932;2023-04-08T08:18:07;22.88;;;13.75;;
45893;SDS011;31603;51.148;16.932;2023-04-08T08:20:34;21.90;;;13.27;;
45893;SDS011;31603;51.148;16.932;2023-04-08T08:23:00;26.90;;;15.25;;
45893;SDS011;31603;51.148;16.932;2023-04-08T08:25:26;20.67;;;12.75;;
45893;SDS011;31603;51.148;16.932;2023-04-08T08:27:53;19.88;;;12.55;;
45893;SDS011;31603;51.148;16.932;2023-04-08T08:30:23;20.88;;;11.80;;
45893;SDS011;31603;51.148;16.932;2023-04-08T08:32:50;19.73;;;12.45;;
45893;SDS011;31603;51.148;16.932;2023-04-08T08:35:16;20.98;;;11.82;;
45893;SDS011;31603;51.148;16.932;2023-04-08T08:37:43;21.88;;;13.23;;
45893;SDS011;31603;51.148;16.932;2023-04-08T08:40:09;19.67;;;12.68;;
45893;SDS011;31603;51.148;16.932;2023-04-08T08:42:36;19.73;;;12.45;;
45893;SDS011;31603;51.148;16.932;2023-04-08T08:45:02;21.35;;;12.25;;
45893;SDS011;31603;51.148;16.932;2023-04-08T08:47:33;18.45;;;11.90;;
45893;SDS011;31603;51.148;16.932;2023-04-08T08:49:59;16.73;;;10.43;;
45893;SDS011;31603;51.148;16.932;2023-04-08T08:52:26;32.17;;;11.98;;
45893;SDS011;31603;51.148;16.932;2023-04-08T08:54:56;23.98;;;11.38;;
45893;SDS011;31603;51.148;16.932;2023-04-08T08:57:22;25.83;;;11.63;;
45893;SDS011;31603;51.148;16.932;2023-04-08T08:59:49;18.95;;;10.80;;
45893;SDS011;31603;51.148;16.932;2023-04-08T09:02:23;22.15;;;11.10;;
45893;SDS011;31603;51.148;16.932;2023-04-08T09:04:56;15.50;;;10.13;;
45893;SDS011;31603;51.148;16.932;2023-04-08T09:07:23;18.55;;;11.48;;
45893;SDS011;31603;51.148;16.932;2023-04-08T09:09:49;16.38;;;10.07;;
45893;SDS011;31603;51.148;16.932;2023-04-08T09:12:19;16.98;;;11.18;;
45893;SDS011;31603;51.148;16.932;2023-04-08T09:15:04;17.92;;;11.20;;
45893;SDS011;31603;51.148;16.932;2023-04-08T09:17:36;17.52;;;10.25;;
45893;SDS011;31603;51.148;16.932;2023-04-08T09:20:04;19.38;;;11.45;;
45893;SDS011;31603;51.148;16.932;2023-04-08T09:25:21;17.95;;;11.02;;
45893;SDS011;31603;51.148;16.932;2023-04-08T09:27:47;18.00;;;11.10;;
45893;SDS011;31603;51.148;16.932;2023-04-08T09:30:16;15.35;;;10.05;;
45893;SDS011;31603;51.148;16.932;2023-04-08T09:32:48;17.08;;;10.85;;
45893;SDS011;31603;51.148;16.932;2023-04-08T09:35:16;14.95;;;10.20;;
45893;SDS011;31603;51.148;16.932;2023-04-08T09:37:44;18.40;;;10.27;;
45893;SDS011;31603;51.148;16.932;2023-04-08T09:40:11;15.98;;;10.27;;
45893;SDS011;31603;51.148;16.932;2023-04-08T09:42:40;17.35;;;11.57;;
45893;SDS011;31603;51.148;16.932;2023-04-08T09:45:09;17.15;;;10.45;;
45893;SDS011;31603;51.148;16.932;2023-04-08T09:47:38;15.93;;;10.43;;
45893;SDS011;31603;51.148;16.932;2023-04-08T09:52:36;20.33;;;11.57;;
45893;SDS011;31603;51.148;16.932;2023-04-08T09:55:07;17.35;;;10.63;;
45893;SDS011;31603;51.148;16.932;2023-04-08T09:57:35;19.85;;;12.18;;
45893;SDS011;31603;51.148;16.932;2023-04-08T10:00:04;19.92;;;12.43;;
45893;SDS011;31603;51.148;16.932;2023-04-08T10:02:33;17.30;;;11.55;;
45893;SDS011;31603;51.148;16.932;2023-04-08T10:05:05;26.60;;;13.93;;
45893;SDS011;31603;51.148;16.932;2023-04-08T10:07:33;24.27;;;13.32;;
45893;SDS011;31603;51.148;16.932;2023-04-08T10:10:01;22.30;;;13.73;;
45893;SDS011;31603;51.148;16.932;2023-04-08T10:12:27;18.13;;;11.85;;
45893;SDS011;31603;51.148;16.932;2023-04-08T10:15:20;29.80;;;13.40;;
45893;SDS011;31603;51.148;16.932;2023-04-08T10:17:48;23.42;;;12.15;;
45893;SDS011;31603;51.148;16.932;2023-04-08T10:23:05;27.83;;;13.93;;
45893;SDS011;31603;51.148;16.932;2023-04-08T10:25:35;27.77;;;13.02;;
45893;SDS011;31603;51.148;16.932;2023-04-08T10:28:22;20.80;;;11.48;;
45893;SDS011;31603;51.148;16.932;2023-04-08T10:30:48;17.38;;;10.95;;
45893;SDS011;31603;51.148;16.932;2023-04-08T10:33:16;18.65;;;11.80;;
45893;SDS011;31603;51.148;16.932;2023-04-08T10:35:46;15.90;;;11.05;;
45893;SDS011;31603;51.148;16.932;2023-04-08T10:38:16;17.45;;;11.65;;
45893;SDS011;31603;51.148;16.932;2023-04-08T10:40:46;22.50;;;12.27;;
45893;SDS011;31603;51.148;16.932;2023-04-08T10:43:13;18.48;;;12.32;;
45893;SDS011;31603;51.148;16.932;2023-04-08T10:45:40;19.42;;;11.77;;
45893;SDS011;31603;51.148;16.932;2023-04-08T10:48:14;18.02;;;11.70;;
45893;SDS011;31603;51.148;16.932;2023-04-08T10:50:41;18.40;;;11.57;;
45893;SDS011;31603;51.148;16.932;2023-04-08T10:53:08;19.67;;;12.15;;
45893;SDS011;31603;51.148;16.932;2023-04-08T10:55:35;19.83;;;11.95;;
45893;SDS011;31603;51.148;16.932;2023-04-08T10:58:06;17.25;;;11.30;;
45893;SDS011;31603;51.148;16.932;2023-04-08T11:00:33;21.63;;;13.82;;
45893;SDS011;31603;51.148;16.932;2023-04-08T11:03:00;18.85;;;11.98;;
45893;SDS011;31603;51.148;16.932;2023-04-08T11:05:26;20.02;;;12.45;;
45893;SDS011;31603;51.148;16.932;2023-04-08T11:07:52;20.73;;;13.50;;
45893;SDS011;31603;51.148;16.932;2023-04-08T11:10:19;20.05;;;12.00;;
45893;SDS011;31603;51.148;16.932;2023-04-08T11:12:46;19.60;;;12.18;;
45893;SDS011;31603;51.148;16.932;2023-04-08T11:15:13;17.70;;;10.80;;
45893;SDS011;31603;51.148;16.932;2023-04-08T11:17:40;21.35;;;11.80;;
45893;SDS011;31603;51.148;16.932;2023-04-08T11:20:07;18.52;;;11.85;;
45893;SDS011;31603;51.148;16.932;2023-04-08T11:22:34;18.13;;;12.32;;
45893;SDS011;31603;51.148;16.932;2023-04-08T11:25:02;24.20;;;14.50;;
45893;SDS011;31603;51.148;16.932;2023-04-08T11:27:32;18.60;;;11.70;;
45893;SDS011;31603;51.148;16.932;2023-04-08T11:29:58;20.38;;;12.23;;
45893;SDS011;31603;51.148;16.932;2023-04-08T11:32:26;19.00;;;12.00;;
45893;SDS011;31603;51.148;16.932;2023-04-08T11:34:54;21.38;;;12.23;;
45893;SDS011;31603;51.148;16.932;2023-04-08T11:37:20;21.60;;;12.93;;
45893;SDS011;31603;51.148;16.932;2023-04-08T11:39:47;21.73;;;12.70;;
45893;SDS011;31603;51.148;16.932;2023-04-08T11:42:25;20.30;;;12.10;;
45893;SDS011;31603;51.148;16.932;2023-04-08T11:44:51;21.15;;;12.48;;
45893;SDS011;31603;51.148;16.932;2023-04-08T11:47:24;18.65;;;12.10;;
45893;SDS011;31603;51.148;16.932;2023-04-08T11:49:57;21.58;;;12.25;;
45893;SDS011;31603;51.148;16.932;2023-04-08T11:52:39;19.63;;;11.32;;
45893;SDS011;31603;51.148;16.932;2023-04-08T11:55:11;25.17;;;13.57;;
45893;SDS011;31603;51.148;16.932;2023-04-08T11:57:38;23.13;;;13.15;;
45893;SDS011;31603;51.148;16.932;2023-04-08T12:00:05;21.92;;;12.60;;
45893;SDS011;31603;51.148;16.932;2023-04-08T12:02:33;17.98;;;11.45;;
45893;SDS011;31603;51.148;16.932;2023-04-08T12:05:05;20.85;;;13.77;;
45893;SDS011;31603;51.148;16.932;2023-04-08T12:07:32;17.25;;;11.98;;
45893;SDS011;31603;51.148;16.932;2023-04-08T12:10:02;17.08;;;12.95;;
45893;SDS011;31603;51.148;16.932;2023-04-08T12:12:35;15.55;;;10.73;;
45893;SDS011;31603;51.148;16.932;2023-04-08T12:15:02;16.30;;;10.95;;
45893;SDS011;31603;51.148;16.932;2023-04-08T12:17:30;14.73;;;9.88;;
45893;SDS011;31603;51.148;16.932;2023-04-08T12:19:56;18.40;;;11.25;;
45893;SDS011;31603;51.148;16.932;2023-04-08T12:22:24;15.15;;;11.68;;
45893;SDS011;31603;51.148;16.932;2023-04-08T12:24:53;16.55;;;11.40;;
45893;SDS011;31603;51.148;16.932;2023-04-08T12:27:19;19.10;;;11.50;;
45893;SDS011;31603;51.148;16.932;2023-04-08T12:29:46;19.08;;;11.98;;
45893;SDS011;31603;51.148;16.932;2023-04-08T12:32:13;18.38;;;11.88;;
45893;SDS011;31603;51.148;16.932;2023-04-08T12:35:00;19.92;;;13.35;;
45893;SDS011;31603;51.148;16.932;2023-04-08T12:37:27;16.92;;;12.25;;
45893;SDS011;31603;51.148;16.932;2023-04-08T12:39:57;16.48;;;11.38;;
45893;SDS011;31603;51.148;16.932;2023-04-08T12:43:00;17.17;;;10.57;;
45893;SDS011;31603;51.148;16.932;2023-04-08T12:45:13;13.35;;;9.68;;
45893;SDS011;31603;51.148;16.932;2023-04-08T12:47:47;15.07;;;11.05;;
45893;SDS011;31603;51.148;16.932;2023-04-08T12:50:22;13.38;;;9.82;;
45893;SDS011;31603;51.148;16.932;2023-04-08T12:53:05;14.02;;;9.90;;
45893;SDS011;31603;51.148;16.932;2023-04-08T12:55:39;13.82;;;9.40;;
45893;SDS011;31603;51.148;16.932;2023-04-08T12:58:05;13.70;;;9.57;;
45893;SDS011;31603;51.148;16.932;2023-04-08T13:00:39;12.20;;;8.65;;
45893;SDS011;31603;51.148;16.932;2023-04-08T13:03:10;12.63;;;9.50;;
45893;SDS011;31603;51.148;16.932;2023-04-08T13:05:37;12.63;;;8.75;;
45893;SDS011;31603;51.148;16.932;2023-04-08T13:08:12;13.50;;;9.10;;
45893;SDS011;31603;51.148;16.932;2023-04-08T13:10:40;12.73;;;8.75;;
45893;SDS011;31603;51.148;16.932;2023-04-08T13:13:13;13.38;;;8.40;;
45893;SDS011;31603;51.148;16.932;2023-04-08T13:15:53;15.10;;;10.75;;
45893;SDS011;31603;51.148;16.932;2023-04-08T13:18:23;14.68;;;9.88;;
45893;SDS011;31603;51.148;16.932;2023-04-08T13:20:54;18.95;;;10.52;;
45893;SDS011;31603;51.148;16.932;2023-04-08T13:26:30;12.60;;;8.98;;
45893;SDS011;31603;51.148;16.932;2023-04-08T13:29:11;11.88;;;9.15;;
45893;SDS011;31603;51.148;16.932;2023-04-08T13:31:39;14.07;;;9.52;;
45893;SDS011;31603;51.148;16.932;2023-04-08T13:34:06;31.73;;;11.68;;
45893;SDS011;31603;51.148;16.932;2023-04-08T13:36:33;16.10;;;9.30;;
45893;SDS011;31603;51.148;16.932;2023-04-08T13:39:01;15.73;;;9.93;;
45893;SDS011;31603;51.148;16.932;2023-04-08T13:41:29;11.43;;;7.80;;
45893;SDS011;31603;51.148;16.932;2023-04-08T13:43:58;10.75;;;7.90;;
45893;SDS011;31603;51.148;16.932;2023-04-08T13:46:24;11.32;;;8.18;;
45893;SDS011;31603;51.148;16.932;2023-04-08T13:48:51;10.57;;;7.43;;
45893;SDS011;31603;51.148;16.932;2023-04-08T13:51:41;11.02;;;7.43;;
45893;SDS011;31603;51.148;16.932;2023-04-08T13:54:07;14.18;;;9.63;;
45893;SDS011;31603;51.148;16.932;2023-04-08T13:56:40;15.50;;;12.73;;
45893;SDS011;31603;51.148;16.932;2023-04-08T13:59:22;11.90;;;9.43;;
45893;SDS011;31603;51.148;16.932;2023-04-08T14:02:21;13.52;;;9.57;;
45893;SDS011;31603;51.148;16.932;2023-04-08T14:05:02;14.90;;;9.77;;
45893;SDS011;31603;51.148;16.932;2023-04-08T14:07:31;13.23;;;9.60;;
45893;SDS011;31603;51.148;16.932;2023-04-08T14:09:58;15.35;;;11.55;;
45893;SDS011;31603;51.148;16.932;2023-04-08T14:12:25;14.50;;;11.93;;
45893;SDS011;31603;51.148;16.932;2023-04-08T14:15:18;14.90;;;10.95;;
45893;SDS011;31603;51.148;16.932;2023-04-08T14:18:11;15.80;;;10.88;;
45893;SDS011;31603;51.148;16.932;2023-04-08T14:20:38;13.65;;;10.32;;
45893;SDS011;31603;51.148;16.932;2023-04-08T14:23:04;13.38;;;9.38;;
45893;SDS011;31603;51.148;16.932;2023-04-08T14:25:32;14.98;;;9.55;;
45893;SDS011;31603;51.148;16.932;2023-04-08T14:27:59;12.27;;;9.25;;
45893;SDS011;31603;51.148;16.932;2023-04-08T14:30:27;10.55;;;8.25;;
45893;SDS011;31603;51.148;16.932;2023-04-08T14:32:53;12.68;;;8.88;;
45893;SDS011;31603;51.148;16.932;2023-04-08T14:35:56;13.27;;;8.68;;
45893;SDS011;31603;51.148;16.932;2023-04-08T14:38:25;10.80;;;7.68;;
45893;SDS011;31603;51.148;16.932;2023-04-08T14:40:59;11.68;;;7.68;;
45893;SDS011;31603;51.148;16.932;2023-04-08T14:43:26;11.30;;;8.85;;
45893;SDS011;31603;51.148;16.932;2023-04-08T14:45:54;11.07;;;8.13;;
45893;SDS011;31603;51.148;16.932;2023-04-08T14:48:20;11.75;;;8.88;;
45893;SDS011;31603;51.148;16.932;2023-04-08T14:50:51;12.82;;;9.45;;
45893;SDS011;31603;51.148;16.932;2023-04-08T14:53:17;14.98;;;10.52;;
45893;SDS011;31603;51.148;16.932;2023-04-08T14:55:44;13.93;;;10.27;;
45893;SDS011;31603;51.148;16.932;2023-04-08T14:58:10;17.35;;;10.30;;
45893;SDS011;31603;51.148;16.932;2023-04-08T15:00:36;15.35;;;10.57;;
45893;SDS011;31603;51.148;16.932;2023-04-08T15:03:04;13.48;;;9.68;;
45893;SDS011;31603;51.148;16.932;2023-04-08T15:05:30;17.60;;;11.52;;
45893;SDS011;31603;51.148;16.932;2023-04-08T15:07:56;15.90;;;10.95;;
45893;SDS011;31603;51.148;16.932;2023-04-08T15:10:23;18.33;;;12.30;;
45893;SDS011;31603;51.148;16.932;2023-04-08T15:12:49;15.85;;;11.90;;
45893;SDS011;31603;51.148;16.932;2023-04-08T15:15:15;17.77;;;12.57;;
45893;SDS011;31603;51.148;16.932;2023-04-08T15:17:41;14.05;;;10.35;;
45893;SDS011;31603;51.148;16.932;2023-04-08T15:20:10;17.23;;;11.82;;
45893;SDS011;31603;51.148;16.932;2023-04-08T15:22:36;13.43;;;9.88;;
45893;SDS011;31603;51.148;16.932;2023-04-08T15:25:02;13.18;;;9.10;;
45893;SDS011;31603;51.148;16.932;2023-04-08T15:27:30;14.63;;;10.10;;
45893;SDS011;31603;51.148;16.932;2023-04-08T15:29:56;17.30;;;11.73;;
45893;SDS011;31603;51.148;16.932;2023-04-08T15:32:22;15.82;;;11.65;;
45893;SDS011;31603;51.148;16.932;2023-04-08T15:34:49;14.70;;;10.50;;
45893;SDS011;31603;51.148;16.932;2023-04-08T15:37:16;20.38;;;13.13;;
45893;SDS011;31603;51.148;16.932;2023-04-08T15:39:43;20.48;;;14.88;;
45893;SDS011;31603;51.148;16.932;2023-04-08T15:42:09;28.95;;;20.02;;
45893;SDS011;31603;51.148;16.932;2023-04-08T15:44:35;17.77;;;12.85;;
45893;SDS011;31603;51.148;16.932;2023-04-08T15:47:02;14.43;;;10.48;;
45893;SDS011;31603;51.148;16.932;2023-04-08T15:49:28;19.15;;;12.88;;
45893;SDS011;31603;51.148;16.932;2023-04-08T15:51:55;19.45;;;13.80;;
45893;SDS011;31603;51.148;16.932;2023-04-08T15:54:25;22.27;;;15.02;;
45893;SDS011;31603;51.148;16.932;2023-04-08T15:56:54;21.03;;;14.17;;
45893;SDS011;31603;51.148;16.932;2023-04-08T15:59:25;27.20;;;17.33;;
45893;SDS011;31603;51.148;16.932;2023-04-08T16:02:02;25.05;;;16.58;;
45893;SDS011;31603;51.148;16.932;2023-04-08T16:04:37;30.50;;;20.25;;
45893;SDS011;31603;51.148;16.932;2023-04-08T16:07:04;24.70;;;17.77;;
45893;SDS011;31603;51.148;16.932;2023-04-08T16:09:52;23.92;;;15.77;;
45893;SDS011;31603;51.148;16.932;2023-04-08T16:12:18;23.33;;;15.98;;
45893;SDS011;31603;51.148;16.932;2023-04-08T16:14:55;19.92;;;14.05;;
45893;SDS011;31603;51.148;16.932;2023-04-08T16:17:21;18.23;;;11.73;;
45893;SDS011;31603;51.148;16.932;2023-04-08T16:19:48;19.05;;;11.40;;
45893;SDS011;31603;51.148;16.932;2023-04-08T16:22:18;17.02;;;11.90;;
45893;SDS011;31603;51.148;16.932;2023-04-08T16:24:47;15.05;;;11.23;;
45893;SDS011;31603;51.148;16.932;2023-04-08T16:27:14;16.45;;;10.65;;
45893;SDS011;31603;51.148;16.932;2023-04-08T16:29:40;16.50;;;10.85;;